createdAt,value
2023-07-31T00:02:59.165Z,34.17
2023-07-31T00:08:03.097Z,30.99
2023-07-31T00:13:06.814Z,32.19
2023-07-31T00:18:12.199Z,30.58
2023-07-31T00:23:15.921Z,29.27
2023-07-31T00:28:41.438Z,28.52
2023-07-31T00:33:47.789Z,29.82
2023-07-31T00:38:51.493Z,29.88
2023-07-31T00:43:55.206Z,30.05
2023-07-31T00:49:01.769Z,30.21
2023-07-31T00:54:05.758Z,30.28
2023-07-31T00:59:09.563Z,31.18
2023-07-31T01:04:15.878Z,31.11
2023-07-31T01:09:34.548Z,31.89
2023-07-31T01:14:38.277Z,31.76
2023-07-31T01:19:44.411Z,32.16
2023-07-31T01:25:01.084Z,32.09
2023-07-31T01:30:13.393Z,31.30
2023-07-31T01:35:17.645Z,31.46
2023-07-31T01:40:21.496Z,31.54
2023-07-31T01:45:26.988Z,31.66
2023-07-31T01:50:30.643Z,33.34
2023-07-31T01:55:34.438Z,32.91
2023-07-31T02:00:39.811Z,33.16
2023-07-31T02:05:47.121Z,33.79
2023-07-31T02:10:50.916Z,34.18
2023-07-31T02:15:56.400Z,34.16
2023-07-31T02:21:00.250Z,34.18
2023-07-31T02:26:04.046Z,34.86
2023-07-31T02:31:10.562Z,35.73
2023-07-31T02:36:16.708Z,36.41
2023-07-31T02:41:20.577Z,36.22
2023-07-31T02:46:26.122Z,36.47
2023-07-31T02:57:29.704Z,38.03
2023-07-31T03:02:41.295Z,39.34
2023-07-31T03:07:58.128Z,41.93
2023-07-31T03:13:15.482Z,44.25
2023-07-31T03:18:25.380Z,45.00
2023-07-31T03:23:30.641Z,44.46
2023-07-31T03:28:39.589Z,44.94
2023-07-31T03:33:47.077Z,46.07
2023-07-31T03:38:56.626Z,46.80
2023-07-31T03:44:14.381Z,46.75
2023-07-31T03:49:22.468Z,48.68
2023-07-31T03:54:31.917Z,47.49
2023-07-31T03:59:35.637Z,47.37
2023-07-31T04:04:43.435Z,48.64
2023-07-31T04:09:52.270Z,49.72
2023-07-31T04:15:05.362Z,49.21
2023-07-31T04:20:26.281Z,50.57
2023-07-31T04:25:30.032Z,50.57
2023-07-31T04:30:33.719Z,51.24
2023-07-31T04:35:39.849Z,51.94
2023-07-31T04:40:43.562Z,51.87
2023-07-31T04:45:48.370Z,51.89
2023-07-31T04:50:53.766Z,53.04
2023-07-31T04:55:57.500Z,53.30
2023-07-31T05:01:01.287Z,53.52
2023-07-31T05:06:07.625Z,53.71
2023-07-31T05:11:11.365Z,52.63
2023-07-31T05:16:15.863Z,53.59
2023-07-31T05:21:21.388Z,54.10
2023-07-31T05:26:25.303Z,53.84
2023-07-31T05:31:29.045Z,53.98
2023-07-31T05:36:34.474Z,54.79
2023-07-31T05:41:38.314Z,54.97
2023-07-31T05:46:42.444Z,55.36
2023-07-31T05:51:48.236Z,56.04
2023-07-31T05:56:51.378Z,56.96
2023-07-31T06:01:55.475Z,56.05
2023-07-31T06:07:01.650Z,57.12
2023-07-31T06:12:06.017Z,56.95
2023-07-31T06:17:09.735Z,57.05
2023-07-31T06:22:15.118Z,58.00
2023-07-31T06:27:18.826Z,57.43
2023-07-31T06:32:22.688Z,57.55
2023-07-31T06:37:28.354Z,58.20
2023-07-31T06:42:32.085Z,58.33
2023-07-31T06:47:35.877Z,58.32
2023-07-31T06:52:41.318Z,59.23
2023-07-31T06:57:45.749Z,58.68
2023-07-31T07:02:49.847Z,58.19
2023-07-31T07:07:55.270Z,58.57
2023-07-31T07:12:59.045Z,58.61
2023-07-31T07:18:02.874Z,59.67
2023-07-31T07:23:10.569Z,60.12
2023-07-31T07:28:15.720Z,59.89
2023-07-31T07:33:19.475Z,60.43
2023-07-31T07:38:24.783Z,60.88
2023-07-31T07:43:28.505Z,60.35
2023-07-31T07:48:32.237Z,61.87
2023-07-31T07:53:38.323Z,61.55
2023-07-31T07:58:43.117Z,61.78
2023-07-31T08:03:47.003Z,63.16
2023-07-31T08:08:52.448Z,63.02
2023-07-31T08:13:56.188Z,62.19
2023-07-31T08:19:00.029Z,62.21
2023-07-31T08:24:05.611Z,63.06
2023-07-31T08:29:09.353Z,62.07
2023-07-31T08:34:13.140Z,62.21
2023-07-31T08:39:18.559Z,62.30
2023-07-31T08:44:22.271Z,63.13
2023-07-31T08:49:26.577Z,62.67
2023-07-31T08:54:32.392Z,62.32
2023-07-31T08:59:37.589Z,61.99
2023-07-31T09:04:41.391Z,62.68
2023-07-31T09:09:48.383Z,64.64
2023-07-31T09:14:52.111Z,63.41
2023-07-31T09:19:55.819Z,63.95
2023-07-31T09:25:15.816Z,64.53
2023-07-31T09:30:20.114Z,64.75
2023-07-31T09:35:30.379Z,64.21
2023-07-31T09:40:37.185Z,65.38
2023-07-31T09:45:42.491Z,65.57
2023-07-31T09:50:47.397Z,65.84
2023-07-31T09:55:53.009Z,66.10
2023-07-31T10:00:57.764Z,65.37
2023-07-31T10:06:04.449Z,64.34
2023-07-31T10:11:12.022Z,65.51
2023-07-31T10:16:16.665Z,65.19
2023-07-31T10:21:20.932Z,65.63
2023-07-31T10:26:28.082Z,65.95
2023-07-31T10:31:31.981Z,64.83
2023-07-31T10:36:41.600Z,65.81
2023-07-31T10:41:48.128Z,66.06
2023-07-31T10:47:04.558Z,67.70
2023-07-31T10:52:27.787Z,67.26
2023-07-31T10:57:37.951Z,68.01
2023-07-31T11:02:44.579Z,67.43
2023-07-31T11:08:14.362Z,67.62
2023-07-31T11:13:25.015Z,67.09
2023-07-31T11:18:33.367Z,67.14
2023-07-31T11:23:41.947Z,67.37
2023-07-31T11:28:56.477Z,66.90
2023-07-31T11:34:07.509Z,67.03
2023-07-31T11:39:13.866Z,67.52
2023-07-31T11:44:29.787Z,69.05
2023-07-31T11:49:36.466Z,66.81
2023-07-31T11:54:51.762Z,66.89
2023-07-31T12:00:05.981Z,67.17
2023-07-31T12:05:16.235Z,67.32
2023-07-31T12:10:27.677Z,67.72
2023-07-31T12:15:45.690Z,68.04
2023-07-31T12:20:50.656Z,68.24
2023-07-31T12:26:06.386Z,68.32
2023-07-31T12:31:15.918Z,68.22
2023-07-31T12:36:22.124Z,66.59
2023-07-31T12:41:25.836Z,65.22
2023-07-31T12:46:33.547Z,66.57
2023-07-31T12:51:50.488Z,67.29
2023-07-31T12:56:55.004Z,66.28
2023-07-31T13:02:07.247Z,66.68
2023-07-31T13:07:15.093Z,66.49
2023-07-31T13:12:18.926Z,66.29
2023-07-31T13:17:31.900Z,67.47
2023-07-31T13:22:41.536Z,67.94
2023-07-31T13:27:46.464Z,68.58
2023-07-31T13:32:57.124Z,69.42
2023-07-31T13:38:05.807Z,70.55
2023-07-31T13:43:24.143Z,69.60
2023-07-31T13:48:39.577Z,70.55
2023-07-31T13:53:43.299Z,71.09
2023-07-31T13:58:52.683Z,70.93
2023-07-31T14:04:00.221Z,71.68
2023-07-31T14:52:03.922Z,66.87
2023-07-31T14:57:07.303Z,65.29
2023-07-31T15:02:11.915Z,63.45
2023-07-31T15:07:17.392Z,61.73
2023-07-31T15:12:21.143Z,60.39
2023-07-31T15:17:24.815Z,59.18
2023-07-31T15:22:30.437Z,57.87
2023-07-31T15:27:33.397Z,56.51
2023-07-31T15:32:39.088Z,55.91
2023-07-31T15:37:44.488Z,55.29
2023-07-31T15:42:48.263Z,53.67
2023-07-31T15:47:55.114Z,52.96
2023-07-31T15:53:00.537Z,51.79
2023-07-31T15:58:03.470Z,50.56
2023-07-31T16:03:07.286Z,50.00
2023-07-31T16:08:12.655Z,48.45
2023-07-31T16:13:15.564Z,47.23
2023-07-31T16:18:19.328Z,47.28
2023-07-31T16:23:24.827Z,46.14
2023-07-31T16:28:28.624Z,45.55
2023-07-31T16:33:32.539Z,44.97
2023-07-31T16:38:38.152Z,43.92
2023-07-31T16:43:41.868Z,43.81
2023-07-31T16:48:46.434Z,43.69
2023-07-31T16:53:51.822Z,43.29
2023-07-31T16:58:55.583Z,42.70
2023-07-31T17:03:59.649Z,42.32
2023-07-31T17:09:05.669Z,41.67
2023-07-31T17:14:09.432Z,41.31
2023-07-31T17:19:13.213Z,41.62
2023-07-31T17:24:18.655Z,42.16
2023-07-31T17:29:28.910Z,42.66
2023-07-31T17:34:33.569Z,41.83
2023-07-31T17:39:38.965Z,41.69
2023-07-31T17:44:42.807Z,41.59
2023-07-31T17:49:46.709Z,41.08
2023-07-31T17:54:52.196Z,41.34
2023-07-31T17:59:55.987Z,41.74
2023-07-31T18:04:59.761Z,41.47
2023-07-31T18:10:05.608Z,41.21
2023-07-31T18:15:10.478Z,41.76
2023-07-31T18:20:14.411Z,41.40
2023-07-31T18:25:19.875Z,40.71
2023-07-31T18:30:23.680Z,41.73
2023-07-31T18:35:27.419Z,41.63
2023-07-31T18:40:34.813Z,41.56
2023-07-31T18:45:38.549Z,41.11
2023-07-31T18:50:44.439Z,40.63
2023-07-31T18:55:50.150Z,40.93
2023-07-31T19:00:54.011Z,40.06
2023-07-31T19:06:04.102Z,40.32
2023-07-31T19:11:12.546Z,40.24
2023-07-31T19:16:18.680Z,40.43
2023-07-31T19:21:22.485Z,39.23
2023-07-31T19:26:27.891Z,39.75
2023-07-31T19:31:31.674Z,39.32
2023-07-31T19:36:35.456Z,38.49
2023-07-31T19:41:40.872Z,38.69
2023-07-31T19:46:44.627Z,38.65
2023-07-31T19:51:48.346Z,38.82
2023-07-31T19:56:55.599Z,38.30
2023-07-31T20:01:59.397Z,38.62
2023-07-31T20:07:03.566Z,38.40
2023-07-31T20:12:10.371Z,37.24
2023-07-31T20:17:14.100Z,37.53
2023-07-31T20:22:17.831Z,37.32
2023-07-31T20:27:24.395Z,38.03
2023-07-31T20:32:28.140Z,37.48
2023-07-31T20:37:32.049Z,38.30
2023-07-31T20:42:37.435Z,37.86
2023-07-31T20:47:41.217Z,37.48
2023-07-31T20:52:44.964Z,37.93
2023-07-31T20:57:50.407Z,37.94
2023-07-31T21:02:54.222Z,38.42
2023-07-31T21:07:58.081Z,38.44
2023-07-31T21:13:03.485Z,37.88
2023-07-31T21:18:07.278Z,38.63
2023-07-31T21:23:10.992Z,38.34
2023-07-31T21:28:16.649Z,38.07
2023-07-31T21:33:20.492Z,37.91
2023-07-31T21:38:24.246Z,37.89
2023-07-31T21:43:29.750Z,38.44
2023-07-31T21:48:33.458Z,37.88
2023-07-31T21:53:37.259Z,38.18
2023-07-31T21:58:42.694Z,38.01
2023-07-31T22:03:46.380Z,38.21
2023-07-31T22:08:50.109Z,38.25
2023-07-31T22:13:55.498Z,38.42
2023-07-31T22:18:59.194Z,38.35
2023-07-31T22:24:03.718Z,38.29
2023-07-31T22:29:09.130Z,38.67
2023-07-31T22:34:12.890Z,39.01
2023-07-31T22:39:16.889Z,38.98
2023-07-31T22:44:22.301Z,39.34
2023-07-31T22:49:26.133Z,39.60
2023-07-31T22:54:29.892Z,39.14
2023-07-31T22:59:35.513Z,38.73
2023-07-31T23:04:40.532Z,39.57
2023-07-31T23:09:44.233Z,39.15
2023-07-31T23:14:50.182Z,39.16
2023-07-31T23:19:53.926Z,38.81
2023-07-31T23:24:57.736Z,39.80
2023-07-31T23:30:04.238Z,39.57
2023-07-31T23:35:09.413Z,39.86
2023-07-31T23:40:14.036Z,39.69
2023-07-31T23:45:20.772Z,39.45
2023-07-31T23:50:24.720Z,40.22
2023-07-31T23:55:28.480Z,40.75
